createdAt,value
2018-09-25T00:01:02.520Z,90.73
2018-09-25T00:03:36.174Z,90.22
2018-09-25T00:06:10.014Z,90.75
2018-09-25T00:08:43.837Z,91.02
2018-09-25T00:11:17.658Z,90.38
2018-09-25T00:13:51.429Z,90.96
2018-09-25T00:16:25.149Z,90.57
2018-09-25T00:18:58.700Z,90.73
2018-09-25T00:21:32.508Z,90.33
2018-09-25T00:24:06.278Z,91.00
2018-09-25T00:26:39.977Z,91.09
2018-09-25T00:29:13.742Z,90.79
2018-09-25T00:31:47.491Z,90.85
2018-09-25T00:34:21.460Z,90.50
2018-09-25T00:36:55.251Z,91.12
2018-09-25T00:39:29.053Z,90.66
2018-09-25T00:42:02.849Z,91.00
2018-09-25T00:44:36.377Z,90.27
2018-09-25T00:47:10.180Z,90.33
2018-09-25T00:49:43.781Z,90.90
2018-09-25T00:52:17.507Z,90.70
2018-09-25T00:54:51.124Z,90.73
2018-09-25T00:57:25.044Z,90.81
2018-09-25T00:59:58.769Z,90.82
2018-09-25T01:02:33.548Z,91.15
2018-09-25T01:05:07.318Z,91.02
2018-09-25T01:07:41.158Z,90.67
2018-09-25T01:10:14.916Z,90.97
2018-09-25T01:12:48.443Z,90.93
2018-09-25T01:15:22.025Z,90.25
2018-09-25T01:17:55.819Z,90.94
2018-09-25T01:20:29.552Z,89.75
2018-09-25T01:23:03.211Z,90.39
2018-09-25T01:25:36.941Z,90.25
2018-09-25T01:28:10.729Z,89.86
2018-09-25T01:30:44.534Z,90.20
2018-09-25T01:33:18.007Z,91.30
2018-09-25T01:35:51.766Z,90.62
2018-09-25T01:38:25.452Z,90.67
2018-09-25T01:40:59.172Z,90.88
2018-09-25T01:43:32.840Z,91.05
2018-09-25T01:46:06.612Z,91.18
2018-09-25T01:48:40.169Z,90.88
2018-09-25T01:51:13.938Z,91.73
2018-09-25T01:53:47.456Z,92.25
2018-09-25T01:56:21.135Z,91.24
2018-09-25T01:58:54.936Z,91.28
2018-09-25T02:01:28.732Z,91.37
2018-09-25T02:04:02.398Z,90.62
2018-09-25T02:06:36.104Z,90.43
2018-09-25T02:09:10.477Z,91.83
2018-09-25T02:11:44.258Z,91.72
2018-09-25T02:14:17.908Z,90.94
2018-09-25T02:16:51.689Z,90.61
2018-09-25T02:19:25.369Z,90.96
2018-09-25T02:21:59.177Z,90.72
2018-09-25T02:24:32.748Z,91.63
2018-09-25T02:27:06.498Z,91.45
2018-09-25T02:29:40.148Z,90.75
2018-09-25T02:32:13.838Z,90.96
2018-09-25T02:34:47.530Z,91.89
2018-09-25T02:37:21.053Z,91.64
2018-09-25T02:39:54.789Z,92.08
2018-09-25T02:42:28.574Z,91.68
2018-09-25T02:45:03.019Z,90.85
2018-09-25T02:47:36.636Z,91.67
2018-09-25T02:50:10.368Z,91.45
2018-09-25T02:52:44.028Z,90.13
2018-09-25T02:55:18.398Z,90.71
2018-09-25T02:57:52.002Z,90.27
2018-09-25T03:00:25.632Z,90.75
2018-09-25T03:02:59.443Z,91.45
2018-09-25T03:05:33.280Z,91.08
2018-09-25T03:08:06.980Z,90.92
2018-09-25T03:10:40.744Z,91.55
2018-09-25T03:13:14.266Z,91.49
2018-09-25T03:15:48.000Z,91.84
2018-09-25T03:18:21.712Z,91.50
2018-09-25T03:20:55.440Z,90.49
2018-09-25T03:23:29.216Z,91.56
2018-09-25T03:26:02.866Z,90.99
2018-09-25T03:28:36.647Z,90.64
2018-09-25T03:31:10.884Z,90.97
2018-09-25T03:33:44.562Z,91.32
2018-09-25T03:36:18.341Z,91.10
2018-09-25T03:38:52.065Z,91.21
2018-09-25T03:41:25.713Z,91.15
2018-09-25T03:43:59.572Z,91.05
2018-09-25T03:46:33.305Z,91.66
2018-09-25T03:49:06.928Z,90.93
2018-09-25T03:51:40.654Z,90.71
2018-09-25T03:54:14.333Z,91.24
2018-09-25T03:56:48.021Z,91.11
2018-09-25T03:59:21.736Z,91.54
2018-09-25T04:01:55.276Z,91.76
2018-09-25T04:04:28.907Z,91.60
2018-09-25T04:07:02.790Z,91.38
2018-09-25T04:09:36.525Z,91.37
2018-09-25T04:12:10.258Z,91.24
2018-09-25T04:14:44.010Z,90.98
2018-09-25T04:17:17.734Z,90.81
2018-09-25T04:19:51.549Z,91.43
2018-09-25T04:22:25.316Z,92.19
2018-09-25T04:24:58.781Z,91.91
2018-09-25T04:27:32.328Z,91.85
2018-09-25T04:30:06.062Z,90.92
2018-09-25T04:32:39.837Z,90.65
2018-09-25T04:35:13.652Z,91.00
2018-09-25T04:37:47.440Z,90.83
2018-09-25T04:40:21.180Z,90.91
2018-09-25T04:42:54.965Z,90.93
2018-09-25T04:45:28.690Z,90.56
2018-09-25T04:48:02.449Z,91.21
2018-09-25T04:50:36.122Z,91.43
2018-09-25T04:53:09.798Z,92.15
2018-09-25T04:55:43.249Z,92.21
2018-09-25T04:58:16.745Z,92.26
2018-09-25T05:00:50.522Z,91.81
2018-09-25T05:03:24.176Z,92.01
2018-09-25T05:05:57.918Z,91.89
2018-09-25T05:08:31.596Z,91.53
2018-09-25T05:11:05.128Z,90.90
2018-09-25T05:13:38.932Z,91.85
2018-09-25T05:16:12.708Z,92.08
2018-09-25T05:18:46.444Z,91.44
2018-09-25T05:21:20.288Z,91.11
2018-09-25T05:23:54.062Z,91.79
2018-09-25T05:26:27.972Z,91.26
2018-09-25T05:29:01.667Z,91.23
2018-09-25T05:31:35.284Z,91.53
2018-09-25T05:34:08.970Z,91.64
2018-09-25T05:36:42.699Z,92.07
2018-09-25T05:39:16.452Z,91.30
2018-09-25T05:41:50.090Z,92.16
2018-09-25T05:44:23.968Z,92.19
2018-09-25T05:46:57.610Z,91.88
2018-09-25T05:49:31.456Z,92.14
2018-09-25T05:52:05.175Z,92.46
2018-09-25T05:54:38.955Z,92.66
2018-09-25T05:57:12.652Z,92.32
2018-09-25T05:59:46.267Z,92.01
2018-09-25T06:02:19.950Z,91.65
2018-09-25T06:04:53.655Z,91.62
2018-09-25T06:07:27.440Z,92.02
2018-09-25T06:10:01.144Z,92.07
2018-09-25T06:12:34.921Z,92.40
2018-09-25T06:15:08.652Z,91.47
2018-09-25T06:17:42.303Z,91.89
2018-09-25T06:20:16.052Z,92.45
2018-09-25T06:22:49.741Z,92.58
2018-09-25T06:25:23.279Z,92.87
2018-09-25T06:27:56.964Z,92.43
2018-09-25T06:30:30.633Z,93.38
2018-09-25T06:33:04.415Z,92.71
2018-09-25T06:35:37.980Z,92.83
2018-09-25T06:38:11.639Z,92.94
2018-09-25T06:40:45.368Z,92.96
2018-09-25T06:43:19.175Z,93.10
2018-09-25T06:45:52.867Z,93.49
2018-09-25T06:48:26.496Z,93.65
2018-09-25T06:51:00.317Z,93.87
2018-09-25T06:53:34.069Z,93.43
2018-09-25T06:56:07.798Z,93.78
2018-09-25T06:58:41.560Z,93.59
2018-09-25T07:01:15.349Z,93.99
2018-09-25T07:03:49.045Z,93.15
2018-09-25T07:06:22.870Z,93.65
2018-09-25T07:08:56.684Z,93.06
2018-09-25T07:11:30.342Z,93.58
2018-09-25T07:14:04.031Z,93.36
2018-09-25T07:16:37.823Z,93.35
2018-09-25T07:19:11.669Z,93.38
2018-09-25T07:21:45.308Z,93.48
2018-09-25T07:24:19.064Z,93.64
2018-09-25T07:26:52.805Z,93.86
2018-09-25T07:29:26.563Z,93.57
2018-09-25T07:32:00.217Z,93.24
2018-09-25T07:34:33.924Z,93.96
2018-09-25T07:37:07.731Z,93.05
2018-09-25T07:39:41.437Z,93.73
2018-09-25T07:42:15.090Z,93.02
2018-09-25T07:44:48.866Z,93.60
2018-09-25T07:47:22.555Z,92.98
2018-09-25T07:49:56.299Z,93.33
2018-09-25T07:52:30.059Z,93.10
2018-09-25T07:55:03.867Z,93.73
2018-09-25T07:57:37.577Z,93.22
2018-09-25T08:00:11.438Z,92.90
2018-09-25T08:02:45.000Z,93.04
2018-09-25T08:05:18.662Z,93.21
2018-09-25T08:07:52.435Z,93.49
2018-09-25T08:10:25.972Z,92.95
2018-09-25T08:12:59.550Z,93.58
2018-09-25T08:15:33.421Z,93.05
2018-09-25T08:18:06.949Z,92.80
2018-09-25T08:20:40.638Z,93.06
2018-09-25T08:23:14.409Z,93.28
2018-09-25T08:25:48.086Z,92.66
2018-09-25T08:28:21.736Z,93.20
2018-09-25T08:30:55.353Z,93.14
2018-09-25T08:33:29.097Z,93.27
2018-09-25T08:36:03.284Z,92.96
2018-09-25T08:38:37.099Z,93.31
2018-09-25T08:41:10.838Z,92.92
2018-09-25T08:43:44.602Z,93.36
2018-09-25T08:46:18.218Z,92.46
2018-09-25T08:48:51.903Z,92.71
2018-09-25T08:51:25.496Z,92.85
2018-09-25T08:53:59.285Z,92.81
2018-09-25T08:56:33.122Z,93.17
2018-09-25T08:59:06.919Z,92.76
2018-09-25T09:01:40.614Z,93.48
2018-09-25T09:04:14.421Z,92.70
2018-09-25T09:06:48.349Z,92.81
2018-09-25T09:09:22.110Z,92.92
2018-09-25T09:11:55.980Z,92.95
2018-09-25T09:14:29.749Z,92.57
2018-09-25T09:17:03.583Z,92.29
2018-09-25T09:19:37.376Z,91.46
2018-09-25T09:22:11.133Z,91.07
2018-09-25T09:24:44.875Z,91.21
2018-09-25T09:27:18.553Z,90.58
2018-09-25T09:29:52.075Z,90.21
2018-09-25T09:32:25.740Z,90.36
2018-09-25T09:34:59.493Z,90.40
2018-09-25T09:37:33.164Z,90.58
2018-09-25T09:40:06.980Z,90.56
2018-09-25T09:42:40.757Z,88.50
2018-09-25T09:45:14.477Z,88.28
2018-09-25T09:47:48.309Z,87.91
2018-09-25T09:50:22.163Z,87.96
2018-09-25T09:52:55.768Z,87.46
2018-09-25T09:55:29.544Z,87.01
2018-09-25T09:58:03.134Z,87.19
2018-09-25T10:00:36.730Z,88.37
2018-09-25T10:03:10.420Z,87.73
2018-09-25T10:05:44.596Z,88.46
2018-09-25T10:08:18.127Z,87.93
2018-09-25T10:10:51.616Z,87.86
2018-09-25T10:13:25.245Z,87.95
2018-09-25T10:15:59.085Z,87.31
2018-09-25T10:18:32.646Z,87.03
2018-09-25T10:21:06.520Z,86.32
2018-09-25T10:23:40.248Z,85.43
2018-09-25T10:26:14.282Z,85.45
2018-09-25T10:28:48.028Z,85.74
2018-09-25T10:31:21.525Z,84.09
2018-09-25T10:33:55.153Z,82.45
2018-09-25T10:36:28.816Z,81.58
2018-09-25T10:39:02.599Z,83.02
2018-09-25T10:41:36.265Z,83.03
2018-09-25T10:44:10.146Z,83.58
2018-09-25T10:46:43.886Z,81.89
2018-09-25T10:49:17.621Z,81.31
2018-09-25T10:51:51.253Z,81.39
2018-09-25T10:54:24.968Z,81.62
2018-09-25T10:56:58.544Z,81.75
2018-09-25T10:59:32.327Z,81.72
2018-09-25T11:02:06.210Z,81.82
2018-09-25T11:04:39.838Z,81.46
2018-09-25T11:07:13.548Z,79.86
2018-09-25T11:09:47.165Z,80.25
2018-09-25T11:12:20.943Z,81.26
2018-09-25T11:14:54.680Z,79.72
2018-09-25T11:17:28.472Z,80.32
2018-09-25T11:20:02.301Z,78.34
2018-09-25T11:22:36.024Z,77.39
2018-09-25T11:25:09.814Z,78.34
2018-09-25T11:27:43.569Z,78.63
2018-09-25T11:30:17.389Z,78.78
2018-09-25T11:32:51.137Z,80.03
2018-09-25T11:35:24.845Z,76.11
2018-09-25T11:37:58.610Z,76.69
2018-09-25T11:40:32.319Z,74.19
2018-09-25T11:43:06.109Z,73.51
2018-09-25T11:45:39.882Z,73.63
2018-09-25T11:48:13.480Z,71.57
2018-09-25T11:50:47.044Z,72.14
2018-09-25T11:53:20.723Z,72.99
2018-09-25T11:55:54.279Z,71.30
2018-09-25T11:58:28.023Z,73.16
2018-09-25T12:01:01.752Z,71.58
2018-09-25T12:03:35.423Z,69.44
2018-09-25T12:06:09.187Z,68.61
2018-09-25T12:08:42.767Z,69.01
2018-09-25T12:11:16.481Z,68.81
2018-09-25T12:13:50.510Z,71.58
2018-09-25T12:16:24.166Z,71.99
2018-09-25T12:18:57.795Z,70.43
2018-09-25T12:21:31.587Z,72.42
2018-09-25T12:24:05.420Z,73.70
2018-09-25T12:26:39.213Z,73.57
2018-09-25T12:29:12.897Z,74.81
2018-09-25T12:31:46.676Z,74.71
2018-09-25T12:34:21.080Z,74.99
2018-09-25T12:36:54.853Z,75.52
2018-09-25T12:39:28.574Z,75.70
2018-09-25T12:42:02.195Z,76.31
2018-09-25T12:44:35.941Z,76.48
2018-09-25T12:47:09.616Z,77.08
2018-09-25T12:49:43.260Z,80.45
2018-09-25T12:52:16.853Z,75.66
2018-09-25T12:54:50.519Z,71.03
2018-09-25T12:57:24.129Z,72.17
2018-09-25T12:59:57.737Z,66.49
2018-09-25T13:02:31.408Z,70.74
2018-09-25T13:05:05.024Z,73.63
2018-09-25T13:07:38.811Z,71.21
2018-09-25T13:10:12.492Z,71.27
2018-09-25T13:12:46.341Z,67.60
2018-09-25T13:15:19.967Z,63.90
2018-09-25T13:17:53.633Z,69.09
2018-09-25T13:20:27.350Z,64.51
2018-09-25T13:23:00.996Z,63.08
2018-09-25T13:25:34.488Z,64.19
2018-09-25T13:28:08.206Z,63.49
2018-09-25T13:30:41.790Z,64.66
2018-09-25T13:33:15.352Z,64.48
2018-09-25T13:35:49.067Z,65.49
2018-09-25T13:38:22.701Z,65.58
2018-09-25T13:40:56.445Z,65.64
2018-09-25T13:43:29.929Z,65.54
2018-09-25T13:46:03.645Z,65.04
2018-09-25T13:48:37.353Z,66.09
2018-09-25T13:51:10.973Z,66.06
2018-09-25T13:53:44.675Z,63.96
2018-09-25T13:56:18.153Z,65.38
2018-09-25T13:58:51.909Z,65.94
2018-09-25T14:01:25.556Z,63.84
2018-09-25T14:03:59.288Z,62.26
2018-09-25T14:06:32.977Z,63.88
2018-09-25T14:09:06.776Z,64.99
2018-09-25T14:11:40.478Z,62.39
2018-09-25T14:14:14.275Z,61.56
2018-09-25T14:16:47.788Z,64.56
2018-09-25T14:19:21.417Z,63.70
2018-09-25T14:21:55.191Z,64.93
2018-09-25T14:24:28.937Z,64.86
2018-09-25T14:27:02.567Z,65.32
2018-09-25T14:29:36.243Z,63.23
2018-09-25T14:32:09.953Z,62.64
2018-09-25T14:34:43.762Z,65.41
2018-09-25T14:37:17.422Z,62.93
2018-09-25T14:39:51.250Z,63.14
2018-09-25T14:42:25.036Z,62.50
2018-09-25T14:44:58.738Z,63.92
2018-09-25T14:47:32.450Z,61.50
2018-09-25T14:50:06.097Z,60.80
2018-09-25T14:52:39.787Z,61.44
2018-09-25T14:55:13.617Z,63.24
2018-09-25T14:57:47.283Z,64.79
2018-09-25T15:00:21.065Z,64.82
2018-09-25T15:02:54.642Z,64.08
2018-09-25T15:05:28.440Z,62.12
2018-09-25T15:08:02.108Z,62.58
2018-09-25T15:10:35.689Z,63.45
2018-09-25T15:13:09.277Z,63.70
2018-09-25T15:15:42.928Z,64.13
2018-09-25T15:18:16.559Z,64.38
2018-09-25T15:20:50.283Z,66.05
2018-09-25T15:23:24.109Z,65.24
2018-09-25T15:25:57.724Z,64.04
2018-09-25T15:28:31.470Z,63.70
2018-09-25T15:31:05.200Z,64.95
2018-09-25T15:33:38.962Z,65.72
2018-09-25T15:36:12.706Z,67.94
2018-09-25T15:38:46.489Z,65.66
2018-09-25T15:41:20.206Z,68.24
2018-09-25T15:43:53.952Z,67.20
2018-09-25T15:46:27.777Z,67.07
2018-09-25T15:49:01.288Z,68.23
2018-09-25T15:51:35.130Z,67.70
2018-09-25T15:54:08.788Z,67.93
2018-09-25T15:56:42.501Z,69.36
2018-09-25T15:59:16.285Z,69.73
2018-09-25T16:01:50.013Z,69.20
2018-09-25T16:04:23.636Z,69.44
2018-09-25T16:06:57.377Z,66.49
2018-09-25T16:09:31.151Z,67.43
2018-09-25T16:12:04.949Z,67.16
2018-09-25T16:14:38.658Z,65.38
2018-09-25T16:17:12.550Z,63.92
2018-09-25T16:19:46.179Z,63.93
2018-09-25T16:22:19.830Z,63.55
2018-09-25T16:24:53.581Z,63.46
2018-09-25T16:27:27.283Z,62.07
2018-09-25T16:30:01.013Z,64.46
2018-09-25T16:32:34.840Z,63.54
2018-09-25T16:35:08.352Z,67.20
2018-09-25T16:37:42.057Z,68.81
2018-09-25T16:40:15.841Z,70.46
2018-09-25T16:42:49.557Z,72.18
2018-09-25T16:45:23.100Z,72.61
2018-09-25T16:47:56.787Z,71.09
2018-09-25T16:50:30.602Z,72.87
2018-09-25T16:53:11.100Z,74.92
2018-09-25T16:55:44.836Z,75.27
2018-09-25T16:58:18.635Z,76.48
2018-09-25T17:00:52.398Z,77.58
2018-09-25T17:03:26.202Z,78.55
2018-09-25T17:05:59.991Z,78.88
2018-09-25T17:08:33.699Z,79.05
2018-09-25T17:11:07.320Z,79.93
2018-09-25T17:13:41.046Z,80.93
2018-09-25T17:16:14.749Z,81.49
2018-09-25T17:18:48.339Z,81.20
2018-09-25T17:21:22.137Z,82.24
2018-09-25T17:23:55.853Z,81.99
2018-09-25T17:26:29.689Z,81.85
2018-09-25T17:29:03.343Z,82.56
2018-09-25T17:31:37.046Z,82.94
2018-09-25T17:34:10.825Z,83.42
2018-09-25T17:36:44.645Z,83.25
2018-09-25T17:39:18.242Z,84.57
2018-09-25T17:41:51.901Z,84.82
2018-09-25T17:44:25.685Z,85.32
2018-09-25T17:46:59.298Z,85.05
2018-09-25T17:49:32.910Z,85.23
2018-09-25T17:52:06.489Z,86.10
2018-09-25T17:54:40.073Z,86.06
2018-09-25T17:57:13.845Z,85.88
2018-09-25T17:59:47.652Z,86.11
2018-09-25T18:02:21.254Z,85.73
2018-09-25T18:04:54.853Z,85.86
2018-09-25T18:07:28.594Z,86.03
2018-09-25T18:10:02.257Z,86.13
2018-09-25T18:12:35.945Z,86.72
2018-09-25T18:15:09.618Z,86.50
2018-09-25T18:17:43.242Z,87.01
2018-09-25T18:20:16.899Z,86.48
2018-09-25T18:22:50.546Z,86.14
2018-09-25T18:25:24.129Z,86.78
2018-09-25T18:27:57.895Z,87.27
2018-09-25T18:30:31.523Z,87.04
2018-09-25T18:33:05.151Z,87.60
2018-09-25T18:35:39.014Z,86.53
2018-09-25T18:38:12.721Z,87.33
2018-09-25T18:40:46.397Z,87.20
2018-09-25T18:43:20.136Z,87.77
2018-09-25T18:45:53.765Z,87.12
2018-09-25T18:48:27.508Z,87.87
2018-09-25T18:51:01.283Z,87.59
2018-09-25T18:53:34.876Z,88.25
2018-09-25T18:56:08.616Z,87.21
2018-09-25T18:58:42.461Z,87.18
2018-09-25T19:01:16.061Z,87.10
2018-09-25T19:03:49.917Z,86.53
2018-09-25T19:06:23.559Z,86.99
2018-09-25T19:08:57.140Z,87.33
2018-09-25T19:11:44.789Z,86.52
2018-09-25T19:14:18.587Z,87.25
2018-09-25T19:16:52.253Z,87.46
2018-09-25T19:19:25.912Z,87.74
2018-09-25T19:21:59.661Z,87.66
2018-09-25T19:24:33.303Z,87.58
2018-09-25T19:27:06.968Z,87.17
2018-09-25T19:29:40.613Z,87.78
2018-09-25T19:32:14.387Z,87.71
2018-09-25T19:34:48.046Z,87.54
2018-09-25T19:37:21.736Z,88.49
2018-09-25T19:39:55.417Z,88.03
2018-09-25T19:42:29.119Z,87.57
2018-09-25T19:45:02.786Z,87.89
2018-09-25T19:47:36.461Z,89.07
2018-09-25T19:50:10.292Z,89.33
2018-09-25T19:52:44.076Z,89.29
2018-09-25T19:55:17.790Z,88.69
2018-09-25T19:57:51.580Z,88.94
2018-09-25T20:00:25.240Z,88.26
2018-09-25T20:02:58.934Z,88.32
2018-09-25T20:05:32.708Z,88.48
2018-09-25T20:08:06.481Z,87.58
2018-09-25T20:10:40.248Z,88.50
2018-09-25T20:13:13.909Z,88.24
2018-09-25T20:15:47.745Z,88.07
2018-09-25T20:18:21.589Z,88.24
2018-09-25T20:20:55.376Z,88.37
2018-09-25T20:23:29.048Z,89.19
2018-09-25T20:26:02.825Z,88.83
2018-09-25T20:28:36.447Z,87.67
2018-09-25T20:31:10.003Z,88.65
2018-09-25T20:33:43.808Z,89.75
2018-09-25T20:36:17.617Z,88.85
2018-09-25T20:38:51.385Z,88.33
2018-09-25T20:41:25.105Z,88.79
2018-09-25T20:43:58.792Z,88.99
2018-09-25T20:46:32.493Z,89.00
2018-09-25T20:49:06.062Z,88.46
2018-09-25T20:51:39.899Z,88.92
2018-09-25T20:54:13.674Z,87.80
2018-09-25T20:56:47.465Z,88.83
2018-09-25T20:59:21.160Z,88.86
2018-09-25T21:01:54.804Z,89.01
2018-09-25T21:04:28.539Z,88.83
2018-09-25T21:07:02.241Z,89.16
2018-09-25T21:09:35.883Z,88.65
2018-09-25T21:12:09.579Z,88.26
2018-09-25T21:14:43.371Z,88.69
2018-09-25T21:17:17.065Z,88.31
2018-09-25T21:19:50.687Z,88.11
2018-09-25T21:22:24.432Z,88.88
2018-09-25T21:24:58.274Z,88.53
2018-09-25T21:27:32.135Z,88.16
2018-09-25T21:30:05.876Z,87.81
2018-09-25T21:32:39.551Z,87.88
2018-09-25T21:35:13.259Z,88.66
2018-09-25T21:37:47.100Z,88.42
2018-09-25T21:40:20.837Z,88.55
2018-09-25T21:42:54.424Z,88.36
2018-09-25T21:45:28.123Z,89.38
2018-09-25T21:48:01.892Z,89.39
2018-09-25T21:50:35.596Z,88.72
2018-09-25T21:53:09.172Z,89.07
2018-09-25T21:55:47.302Z,89.48
2018-09-25T21:58:21.013Z,89.87
2018-09-25T22:00:54.556Z,89.11
2018-09-25T22:03:28.278Z,89.18
2018-09-25T22:06:01.988Z,87.87
2018-09-25T22:08:35.684Z,89.02
2018-09-25T22:11:09.390Z,89.13
2018-09-25T22:13:43.057Z,88.62
2018-09-25T22:16:16.786Z,89.38
2018-09-25T22:18:50.273Z,89.09
2018-09-25T22:21:23.965Z,89.71
2018-09-25T22:23:57.584Z,89.28
2018-09-25T22:26:31.242Z,88.59
2018-09-25T22:29:04.910Z,88.88
2018-09-25T22:31:38.613Z,88.81
2018-09-25T22:34:12.170Z,88.52
2018-09-25T22:36:45.889Z,88.63
2018-09-25T22:39:19.588Z,89.20
2018-09-25T22:41:53.339Z,89.40
2018-09-25T22:44:27.004Z,88.99
2018-09-25T22:47:00.702Z,89.11
2018-09-25T22:49:34.319Z,89.38
2018-09-25T22:52:07.883Z,89.24
2018-09-25T22:54:41.691Z,89.43
2018-09-25T22:57:15.420Z,89.61
2018-09-25T22:59:49.112Z,89.34
2018-09-25T23:02:22.800Z,89.17
2018-09-25T23:04:56.618Z,89.23
2018-09-25T23:07:30.327Z,89.05
2018-09-25T23:10:03.990Z,89.12
2018-09-25T23:12:37.600Z,89.02
2018-09-25T23:15:11.281Z,89.84
2018-09-25T23:17:44.941Z,89.97
2018-09-25T23:20:18.685Z,89.00
2018-09-25T23:22:52.356Z,88.74
2018-09-25T23:25:26.072Z,89.47
2018-09-25T23:27:59.790Z,89.34
2018-09-25T23:30:33.481Z,88.71
2018-09-25T23:33:07.277Z,89.50
2018-09-25T23:35:40.951Z,89.62
2018-09-25T23:38:14.485Z,89.67
2018-09-25T23:41:46.795Z,88.83
2018-09-25T23:44:54.720Z,89.43
2018-09-25T23:47:28.402Z,89.06
2018-09-25T23:50:02.221Z,88.80
2018-09-25T23:52:36.014Z,89.71
2018-09-25T23:55:24.373Z,89.60
2018-09-25T23:58:04.732Z,89.18
